Tiempo atmosférico en la estación meteorológica de Ólvega, Soria (1039 m.)



Fecha
DESCASC
Temp. máxima en grados centígrados (hora)
DESCASC
Temp. mínima en grados centígrados (hora)
DESCASC
Temp. media en grados centígrados
DESCASC
Racha de viento máxima en m/sg (hora)
DESCASC
Velocidad máxima media en intervalos de 10 minutos(hora)
DESCASC
Precipitaciones diarias en mm
DESCASC
Precipitaciones de 00:00 a 06:00 en mm
DESCASC
Precipitaciones de 06:00 a 12:00 en mm
DESCASC
Precipitaciones de 12:00 a 18:00 en mm
DESCASC
Precipitaciones de 18:00 a 24:00 en mm
DESCASC
13-10-2019 23.2 (17:10) 14.7 (07:30) 19 15.28 (14:10) 8.89 (15:30) 0 0 0 0 0
12-10-2019 24.7 (14:20) 16.9 (23:59) 20.8 13.33 (23:50) 7.5 (23:59) 0 0 0 0 0
10-10-2019 22.9 (16:50) 4 (00:00) 13.4 6.11 (16:20) 3.61 (16:20) 0 0 0 0 0
09-10-2019 16.5 (16:20) 8.9 (00:00) 12.7 8.06 (20:00) 4.72 (19:40) 0 0 0 0 0
08-10-2019 29.1 (16:40) 9.6 (00:00) 19.4 8.33 (18:00) 5 (18:00) 0 0 0 0 0
07-10-2019 22.8 (14:40) 4.6 (00:00) 13.7 10.28 (16:00) 6.39 (17:50) 0 0 0 0 0
06-10-2019 21.1 (16:30) 6.2 (00:00) 13.7 10 (19:40) 5.28 (19:10) 0 0 0 0 0
05-10-2019 26.5 (15:30) 7.8 (06:10) 17.2 9.17 (16:50) 4.17 (17:00) 0 0 0 0 0
04-10-2019 24.5 (17:40) 8 (00:00) 16.3 7.78 (16:30) 5 (18:30) 0 0 0 0 0
03-10-2019 24.8 (14:20) 4.5 (00:00) 14.6 7.5 (15:50) 4.72 (15:50) 0 0 0 0 0
02-10-2019 17.3 (14:40) 8 (00:00) 12.6 11.11 (14:00) 6.67 (14:00) 0 0 0 0 0
01-10-2019 24.5 (16:40) 11.8 (00:00) 18.2 11.11 (15:20) 6.11 (15:20) 0 0 0 0 0
30-09-2019 28.5 (18:30) 11.2 (00:00) 19.8 9.72 (14:40) 4.72 (14:40) 0 0 0 0 0
29-09-2019 27.3 (16:30) 10.8 (00:00) 19 11.67 (14:40) 5.83 (15:30) 0 0 0 0 0
28-09-2019 27.8 (17:50) 6.3 (00:00) 17 10 (22:40) 6.39 (22:30) 0 0 0 0 0
27-09-2019 26.4 (16:20) 10 (00:00) 18.2 10.56 (16:10) 4.44 (16:10) 0 0 0 0 0
26-09-2019 27.4 (17:30) 9.6 (00:00) 18.5 8.89 (14:40) 4.72 (14:50) 0 0 0 0 0
25-09-2019 22.7 (15:30) 9.2 (00:00) 16 8.89 (01:00) 3.89 (01:00) 0 0 0 0 0
24-09-2019 23.2 (16:00) 13.1 (00:00) 18.2 11.67 (13:30) 6.67 (13:30) 0 0 0 0 0
23-09-2019 21.6 (16:50) 7.4 (00:00) 14.5 7.78 (14:30) 4.72 (14:30) 0 0 0 0 0
22-09-2019 20.2 (18:00) 10.3 (00:00) 15.3 16.11 (02:30) 7.78 (02:30) 0.2 0 0.2 0 0
21-09-2019 21.2 (15:30) 12.9 (00:00) 17.1 11.94 (23:50) 6.94 (15:20) 2.8 2.8 0 0 0
20-09-2019 24.9 (14:10) 13.5 (00:00) 19.2 14.17 (18:20) 9.17 (18:20) 1.8 0 0 0 1.8
19-09-2019 23.5 (15:20) 11 (00:00) 17.3 8.06 (23:00) 5 (23:59) 0.8 0 0 0.8 0
18-09-2019 24.4 (16:50) 9.9 (00:00) 17.1 7.78 (17:00) 5.28 (17:00) 0.2 0.2 0 0 0
17-09-2019 27.3 (14:20) 13.8 (00:00) 20.5 13.33 (23:00) 7.78 (23:10) 0 0 0 0 0
16-09-2019 23.4 (18:20) 13.7 (00:00) 18.5 7.22 (14:30) 5 (18:00) 0.4 0.2 0.2 0 0

Gráficas

Temp. máximas Temp. mínimas Temp. medias Precipitaciones Rachas de viento máximas Velocidades máximas media en intervalos de 10 minutos

Datos horarios

Fecha y hora oficial Temperatura (ºC) Velocidad del viento (km/h) Dirección del viento Racha (km/h) Dirección de racha Precipitación (mm) Presión (hPa) Tendencia (hPa) Humedad (%)
2019-10-15 23:00:00 9.1 6 Sur 17 Sur 0 -- -- 61
2019-10-15 22:00:00 6.5 7 Sudeste 14 Sudeste 0 -- -- 71
2019-10-15 21:00:00 6.1 10 Sudeste 12 Sudeste 0 -- -- 73
2019-10-15 20:00:00 7.8 8 Sur 17 Sudoeste 0 -- -- 66
2019-10-15 19:00:00 11.1 11 Oeste 38 Sudoeste 0 -- -- 53
2019-10-15 18:00:00 12.7 21 Sudoeste 39 Sudoeste 0 -- -- 48
2019-10-15 17:00:00 13.6 21 Sudoeste 41 Sudoeste 0 -- -- 48
2019-10-15 16:00:00 13.3 23 Sudoeste 42 Sudoeste 0 -- -- 49
2019-10-15 15:00:00 12.7 23 Sudoeste 36 Oeste 0 -- -- 50
2019-10-15 14:00:00 12.9 21 Sudoeste 36 Sudoeste 0 -- -- 52
2019-10-15 13:00:00 11.4 18 Sudoeste 32 Sudoeste 0 -- -- 58
2019-10-15 12:00:00 9.6 20 Oeste 51 Oeste 0 -- -- 64
2019-10-15 11:00:00 8.4 24 Sudoeste 42 Sudoeste 0 -- -- 68
2019-10-15 10:00:00 7.2 19 Sudoeste 40 Oeste 0 -- -- 72
2019-10-15 09:00:00 4.6 10 Sudoeste 32 Sudoeste 0 -- -- 79
2019-10-15 08:00:00 4.4 8 Sudoeste 32 Oeste 0 -- -- 79
2019-10-15 07:00:00 4.9 16 Oeste 36 Oeste 0 -- -- 78
2019-10-15 06:00:00 5 22 Sudoeste 47 Sudoeste 0 -- -- 80
2019-10-15 05:00:00 5 22 Sudoeste 38 Sudoeste 0 -- -- 82
2019-10-15 04:00:00 6 8 Oeste 33 Oeste 0 -- -- 80
2019-10-15 03:00:00 6.3 14 Sudoeste 32 Sudoeste 0 -- -- 79
2019-10-15 02:00:00 6.5 15 Sudoeste 36 Sudoeste 0 -- -- 83
2019-10-15 01:00:00 6.8 17 Sudoeste 41 Sudoeste 0 -- -- 83
2019-10-15 00:00:00 6.8 21 Sudoeste 48 Sudoeste 0 -- -- 84
2019-10-14 23:00:00 6.5 23 Sudoeste 38 Sudoeste 0 -- -- 87
2019-10-14 22:00:00 6.5 18 Sur 49 Sudoeste 1.2 -- -- 85
2019-10-14 21:00:00 6.9 27 Sudoeste 63 Sudoeste 0 -- -- 83
2019-10-14 20:00:00 7.6 36 Sudoeste 70 Sudoeste 0.2 -- -- 83
2019-10-14 19:00:00 15.2 21 Sudoeste 55 Sudoeste 0 -- -- 51
2019-10-14 18:00:00 17.5 27 Sur 48 Sudoeste 0 -- -- 41
2019-10-14 17:00:00 18 27 Sur 59 Sur 0 -- -- 46
2019-10-14 16:00:00 17.6 31 Sudoeste 56 Sudoeste 0 -- -- 57
2019-10-14 15:00:00 17.9 30 Sur 59 Sur 0 -- -- 58
2019-10-14 14:00:00 15.1 31 Sur 60 Sur 1.2 -- -- 73
2019-10-14 13:00:00 15.6 34 Sur 67 Sudeste 0.4 -- -- 71
2019-10-14 12:00:00 16.8 35 Sur 76 Sudeste 0 -- -- 61
2019-10-14 11:00:00 17.3 20 Sur 49 Sudeste 0 -- -- 58
2019-10-14 10:00:00 17.9 20 Sur 46 Sudeste 0 -- -- 56
2019-10-14 09:00:00 18.2 23 Sudeste 82 Sudeste 0 -- -- 52
2019-10-14 08:00:00 18.4 32 Sudeste 63 Sudeste 0 -- -- 48
2019-10-14 07:00:00 17.2 31 Sudeste 49 Sudeste 0 -- -- 57
2019-10-14 06:00:00 16.9 27 Sudeste 48 Sur 0 -- -- 56
2019-10-14 05:00:00 16.5 26 Sudeste 37 Sudeste 0 -- -- 50
2019-10-14 04:00:00 17.7 26 Sudeste 36 Sudeste 0 -- -- 40
2019-10-14 03:00:00 18.3 24 Sudeste 49 Sudeste 0 -- -- 39
2019-10-14 02:00:00 18 29 Sudeste 42 Sudeste 0 -- -- 41
2019-10-14 01:00:00 17.4 20 Sudeste 40 Sudeste 0 -- -- 44
2019-10-14 00:00:00 17.9 18 Sudeste 35 Sudeste 0 -- -- 43
2019-10-13 23:00:00 18.1 21 Sudeste 36 Sudeste 0 -- -- 43
2019-10-13 22:00:00 18.6 14 Sudeste 31 Sudeste 0 -- -- 40
2019-10-13 21:00:00 17.1 10 Sur 22 Sudeste 0 -- -- 40
2019-10-13 20:00:00 19.7 12 Sur 36 Sur 0 -- -- 35
2019-10-13 19:00:00 21.5 15 Sur 47 Sur 0 -- -- 33
2019-10-13 18:00:00 22.4 24 Sur 48 Sur 0 -- -- 32
2019-10-13 17:00:00 23 24 Sur 55 Sur 0 -- -- 35
2019-10-13 16:00:00 22.5 24 Sur 54 Sur 0 -- -- 38
2019-10-13 15:00:00 22.2 27 Sur 55 Sur 0 -- -- 43
2019-10-13 14:00:00 21.1 29 Sur 50 Sur 0 -- -- 49
2019-10-13 13:00:00 21 23 Sur 47 Sur 0 -- -- 51
2019-10-13 12:00:00 20.4 16 Sur 47 Sudeste 0 -- -- 56
2019-10-13 11:00:00 17.8 23 Sur 48 Sur 0 -- -- 66
2019-10-13 10:00:00 16.8 23 Sur 43 Sudeste 0 -- -- 66
2019-10-13 09:00:00 15.8 25 Sudeste 39 Sudeste 0 -- -- 67
2019-10-13 08:00:00 15.2 28 Sur 44 Sur 0 -- -- 64
2019-10-13 07:00:00 15.2 23 Sur 42 Sudeste 0 -- -- 60
2019-10-13 06:00:00 15.4 22 Sudeste 36 Sur 0 -- -- 57
2019-10-13 05:00:00 16.7 21 Sur 39 Sudeste 0 -- -- 51
2019-10-13 04:00:00 17.3 24 Sur 44 Sudeste 0 -- -- 50
2019-10-13 03:00:00 19.4 21 Sur 48 Sur 0 -- -- 41
2019-10-13 02:00:00 17 25 Sur 44 Sur 0 -- -- 52
2019-10-13 01:00:00 17 19 Sur 43 Sur 0 -- -- 53
2019-10-13 00:00:00 16.9 27 Sur 48 Sur 0 -- -- 54
2019-10-12 23:00:00 19 22 Sudeste 33 Sudeste 0 -- -- 50
2019-10-12 22:00:00 18.5 18 Sudeste 24 Sudeste 0 -- -- 57
2019-10-12 21:00:00 19.7 16 Sudeste 33 Sudeste 0 -- -- 45
2019-10-12 20:00:00 20.8 23 Sudeste 41 Sudeste 0 -- -- 42
2019-10-12 19:00:00 20.8 18 Sudeste 30 Sudeste 0 -- -- 52
2019-10-12 18:00:00 22.6 19 Sudeste 42 Sudeste 0 -- -- 47
2019-10-12 17:00:00 24.2 26 Sudeste 43 Sudeste 0 -- -- 40
2019-10-12 16:00:00 22.5 17 Sudeste 33 Sudeste 0 -- -- 46
2019-10-12 15:00:00 23.7 19 Sudeste 39 Sudeste 0 -- -- 43
2019-10-12 14:00:00 23.9 13 Sur 35 Sur 0 -- -- 44
2019-10-12 13:00:00 22.6 15 Sur 33 Sur 0 -- -- 50
2019-10-12 12:00:00 19.8 21 Sur 33 Sur 0 -- -- 58
2019-10-12 11:00:00 20.9 21 Sur 32 Sur 0 -- -- 55
2019-10-12 10:00:00 18.1 13 Sudeste 22 Sur 0 -- -- 68
2019-10-12 09:00:00 17.5 20 Sur 37 Sudeste 0 -- -- 66
2019-10-12 08:00:00 17.7 17 Sur 27 Sur 0 -- -- 63
2019-10-12 07:00:00 18.1 18 Sudeste 33 Sudeste 0 -- -- 61
2019-10-12 06:00:00 18.7 23 Sudeste 38 Sudeste 0 -- -- 58
2019-10-12 05:00:00 17.8 24 Sudeste 34 Sudeste 0 -- -- 59
2019-10-12 04:00:00 19.1 21 Sudeste 32 Sudeste 0 -- -- 52
2019-10-12 03:00:00 20 15 Sudeste 34 Sudeste 0 -- -- 49
2019-10-12 02:00:00 20.2 22 Sur 41 Sur 0 -- -- 47
2019-10-12 01:00:00 20.1 20 Sur 38 Sur 0 -- -- 47
2019-10-12 00:00:00 19.7 17 Sur 31 Sur 0 -- -- 54
2019-10-11 23:00:00 20.5 14 Sur 30 Sur 0 -- -- 55
2019-10-11 22:00:00 20.7 16 Sur 24 Sur 0 -- -- 54
2019-10-11 21:00:00 19 12 Sur 22 Sudeste 0 -- -- 61
2019-10-11 20:00:00 19.6 12 Sur 23 Sudoeste 0 -- -- 59
2019-10-11 19:00:00 25 14 Sur 26 Sur 0 -- -- 40
2019-10-11 18:00:00 24.8 17 Sur 29 Sur 0 -- -- 43
2019-10-11 17:00:00 26.7 10 Sur 28 Sudoeste 0 -- -- 42
2019-10-11 16:00:00 26.1 12 Sudoeste 27 Sudoeste 0 -- -- 43
2019-10-11 15:00:00 26.2 13 Sudoeste 30 Oeste 0 -- -- 43
2019-10-11 14:00:00 25.1 13 Sudoeste 31 Sur 0 -- -- 46
2019-10-11 13:00:00 23.2 17 Sur 31 Sur 0 -- -- 52
2019-10-11 12:00:00 22.3 14 Sur 27 Sur 0 -- -- 54
2019-10-11 11:00:00 22.1 6 Sudeste 17 Sudoeste 0 -- -- 56
2019-10-11 10:00:00 19.3 6 Sudeste 24 Este 0 -- -- 66
2019-10-11 09:00:00 16.4 12 Este 21 Sudeste 0 -- -- 75
2019-10-11 08:00:00 14.7 13 Este 31 Este 0 -- -- 83
2019-10-11 07:00:00 14.6 10 Este 23 Este 0 -- -- 81
2019-10-11 06:00:00 14.7 12 Este 24 Este 0 -- -- 80
2019-10-11 05:00:00 15.3 15 Este 24 Este 0 -- -- 76
2019-10-11 04:00:00 14.1 3 Este 16 Este 0 -- -- 77
2019-10-11 03:00:00 8.9 0 Calma 8 Sudoeste 0 -- -- 81
2019-10-11 02:00:00 8.7 4 Noroeste 14 Sudeste 0 -- -- 77
2019-10-11 01:00:00 12.9 10 Sudeste 17 Sudeste 0 -- -- 64
2019-10-11 00:00:00 9.7 0 Calma 5 Norte 0 -- -- 78
2019-10-10 23:00:00 9.4 3 Norte 10 Sudeste 0 -- -- 76
2019-10-10 22:00:00 11.2 3 Sur 9 Sur 0 -- -- 70
2019-10-10 21:00:00 9.8 2 Sur 11 Sudoeste 0 -- -- 74
2019-10-10 20:00:00 13 6 Sudoeste 12 Norte 0 -- -- 60
2019-10-10 19:00:00 17.9 7 Noroeste 14 Norte 0 -- -- 46
2019-10-10 18:00:00 19 13 Norte 21 Noroeste 0 -- -- 44
2019-10-10 17:00:00 22.1 8 Noroeste 22 Norte 0 -- -- 42
2019-10-10 16:00:00 20.3 12 Norte 19 Norte 0 -- -- 43
2019-10-10 15:00:00 19.8 10 Norte 19 Norte 0 -- -- 45
2019-10-10 14:00:00 18.7 8 Noroeste 15 Norte 0 -- -- 46
2019-10-10 13:00:00 17.1 6 Norte 15 Norte 0 -- -- 48
2019-10-10 12:00:00 15.3 5 Noroeste 14 Noroeste 0 -- -- 51
2019-10-10 11:00:00 14.1 5 Noroeste 10 Noroeste 0 -- -- 56
2019-10-10 10:00:00 12.4 3 Este 11 Este 0 -- -- 64
2019-10-10 09:00:00 7.7 3 Sur 5 Sudeste 0 -- -- 86
2019-10-10 08:00:00 4.5 3 Sur 9 Sudeste 0 -- -- 91
2019-10-10 07:00:00 4.3 3 Sur 8 Sur 0 -- -- 90
2019-10-10 06:00:00 5.7 3 Sur 11 Sudeste 0 -- -- 87
2019-10-10 05:00:00 5.6 4 Sur 10 Este 0 -- -- 84
2019-10-10 04:00:00 6.5 3 Sur 9 Sudoeste 0 -- -- 80
2019-10-10 03:00:00 7.2 3 Sudoeste 7 Sudoeste 0 -- -- 78
2019-10-10 02:00:00 8 3 Sudoeste 8 Sudoeste 0 -- -- 75
2019-10-10 01:00:00 8.2 5 Oeste 10 Norte 0 -- -- 75
2019-10-10 00:00:00 9 4 Norte 14 Noroeste 0 -- -- 74
2019-10-09 23:00:00 10 8 Norte 19 Norte 0 -- -- 75
2019-10-09 22:00:00 10.5 9 Norte 23 Norte 0 -- -- 76
2019-10-09 21:00:00 11.1 13 Norte 26 Norte 0 -- -- 73
2019-10-09 20:00:00 12 12 Norte 29 Nordeste 0 -- -- 69
2019-10-09 19:00:00 14.6 12 Norte 27 Norte 0 -- -- 63
2019-10-09 18:00:00 15.5 15 Norte 26 Norte 0 -- -- 63
2019-10-09 17:00:00 16.4 14 Norte 25 Norte 0 -- -- 62
2019-10-09 16:00:00 15.2 13 Norte 22 Norte 0 -- -- 69
2019-10-09 15:00:00 14.4 13 Norte 24 Nordeste 0 -- -- 73
2019-10-09 14:00:00 14.4 14 Norte 22 Norte 0 -- -- 75
2019-10-09 13:00:00 13.9 10 Norte 16 Norte 0 -- -- 82
2019-10-09 12:00:00 12.7 11 Nordeste 19 Nordeste 0 -- -- 88
2019-10-09 11:00:00 12.2 10 Norte 18 Norte 0 -- -- 91
2019-10-09 10:00:00 12.6 9 Norte 13 Norte 0 -- -- 88
2019-10-09 09:00:00 12.8 3 Noroeste 5 Sur 0 -- -- 90
2019-10-09 08:00:00 11.2 2 Noroeste 10 Noroeste 0 -- -- 92
2019-10-09 07:00:00 10.4 6 Sudoeste 25 Noroeste 0 -- -- 90
2019-10-09 06:00:00 10.7 6 Sudeste 11 Sudeste 0 -- -- 83
2019-10-09 05:00:00 9.8 7 Norte 18 Sudeste 0 -- -- 82
2019-10-09 04:00:00 9.8 7 Sudeste 11 Sudeste 0 -- -- 83
2019-10-09 03:00:00 8.9 5 Sudeste 9 Sudeste 0 -- -- 85
2019-10-09 02:00:00 10.8 3 Sur 9 Sudeste 0 -- -- 75
2019-10-09 01:00:00 11 7 Sudeste 11 Sudoeste 0 -- -- 77
2019-10-09 00:00:00 13.4 6 Sudoeste 10 Sudoeste 0 -- -- 67
2019-10-08 23:00:00 14.3 3 Sudoeste 9 Nordeste 0 -- -- 62
2019-10-08 22:00:00 13.9 4 Sur 9 Sudeste 0 -- -- 58
2019-10-08 21:00:00 15.4 4 Sur 8 Oeste 0 -- -- 52
2019-10-08 20:00:00 19.1 5 Noroeste 13 Noroeste 0 -- -- 39
2019-10-08 19:00:00 23.5 8 Noroeste 28 Nordeste 0 -- -- 32
2019-10-08 18:00:00 25.8 18 Norte 30 Norte 0 -- -- 32
2019-10-08 17:00:00 28.9 12 Sudoeste 24 Sudoeste 0 -- -- 30
2019-10-08 16:00:00 28.1 10 Sur 24 Sudoeste 0 -- -- 32
2019-10-08 15:00:00 26.8 10 Sur 22 Sudoeste 0 -- -- 33
2019-10-08 14:00:00 26 11 Sur 24 Sudoeste 0 -- -- 33
2019-10-08 13:00:00 24.8 14 Sudoeste 22 Sudoeste 0 -- -- 36
2019-10-08 12:00:00 24.2 12 Sudoeste 22 Sudoeste 0 -- -- 38
2019-10-08 11:00:00 25.1 3 Este 8 Nordeste 0 -- -- 39
2019-10-08 10:00:00 20.2 6 Sudeste 13 Sudeste 0 -- -- 46
2019-10-08 09:00:00 13.8 7 Sudeste 11 Sudeste 0 -- -- 56
2019-10-08 08:00:00 10.3 5 Sur 10 Sudeste 0 -- -- 60
2019-10-08 07:00:00 10 5 Sudeste 9 Sudeste 0 -- -- 63
2019-10-08 06:00:00 9.7 9 Sudeste 13 Sudeste 0 -- -- 57
2019-10-08 05:00:00 9.7 4 Sudeste 11 Sudeste 0 -- -- 57
2019-10-08 04:00:00 10.3 5 Sudeste 11 Sudeste 0 -- -- 58
2019-10-08 03:00:00 11.5 6 Sur 11 Sur 0 -- -- 55
2019-10-08 02:00:00 10.6 8 Sudeste 16 Sur 0 -- -- 59
2019-10-08 01:00:00 10.8 8 Sudeste 11 Sudeste 0 -- -- 52
2019-10-08 00:00:00 11.1 6 Sur 11 Sudeste 0 -- -- 50
2019-10-07 23:00:00 11.5 3 Sudoeste 13 Sudoeste 0 -- -- 48
2019-10-07 22:00:00 10.8 4 Sur 14 Sudoeste 0 -- -- 52
2019-10-07 21:00:00 14.1 3 Sur 17 Nordeste 0 -- -- 41
2019-10-07 20:00:00 17.1 12 Nordeste 22 Norte 0 -- -- 34
2019-10-07 19:00:00 20.5 11 Norte 30 Norte 0 -- -- 38
2019-10-07 18:00:00 21.4 23 Norte 37 Norte 0 -- -- 39
2019-10-07 17:00:00 22.3 22 Norte 36 Norte 0 -- -- 36
2019-10-07 16:00:00 22.3 23 Norte 37 Noroeste 0 -- -- 39
2019-10-07 15:00:00 22.4 12 Norte 31 Noroeste 0 -- -- 34
2019-10-07 14:00:00 20.6 17 Noroeste 26 Norte 0 -- -- 29
2019-10-07 13:00:00 21 10 Noroeste 20 Noroeste 0 -- -- 23
2019-10-07 12:00:00 19 7 Norte 17 Norte 0 -- -- 24
2019-10-07 11:00:00 19.3 4 Noroeste 8 Oeste 0 -- -- 26
2019-10-07 10:00:00 16.6 0 Calma 8 Sudeste 0 -- -- 35
2019-10-07 09:00:00 9 5 Sudeste 9 Sudeste 0 -- -- 73
2019-10-07 08:00:00 5.1 2 Sur 5 Sudeste 0 -- -- 87
2019-10-07 07:00:00 6.1 4 Sur 8 Sudoeste 0 -- -- 87
2019-10-07 06:00:00 7.4 5 Sudoeste 8 Sudoeste 0 -- -- 89
2019-10-07 05:00:00 8 4 Noroeste 10 Noroeste 0 -- -- 90
2019-10-07 04:00:00 8.9 4 Noroeste 14 Noroeste 0 -- -- 89
2019-10-07 03:00:00 9.8 8 Noroeste 22 Norte 0 -- -- 87
2019-10-07 02:00:00 9.8 16 Norte 25 Norte 0 -- -- 89
2019-10-07 01:00:00 10.5 8 Noroeste 15 Noroeste 0 -- -- 89
2019-10-07 00:00:00 11 10 Noroeste 26 Norte 0 -- -- 87
2019-10-06 23:00:00 11.7 9 Norte 28 Nordeste 0 -- -- 84
2019-10-06 22:00:00 12.6 11 Norte 21 Norte 0 -- -- 81
2019-10-06 21:00:00 12.8 8 Norte 24 Norte 0 -- -- 80
2019-10-06 20:00:00 14.1 15 Norte 36 Norte 0 -- -- 75
2019-10-06 19:00:00 16.6 17 Norte 30 Norte 0 -- -- 65
2019-10-06 18:00:00 18.2 15 Norte 28 Norte 0 -- -- 60
2019-10-06 17:00:00 19.6 12 Norte 22 Norte 0 -- -- 57
2019-10-06 16:00:00 20.4 7 Nordeste 21 Norte 0 -- -- 53
2019-10-06 15:00:00 19 8 Norte 17 Norte 0 -- -- 56
2019-10-06 14:00:00 18.2 6 Norte 19 Norte 0 -- -- 57
2019-10-06 13:00:00 18 12 Norte 26 Norte 0 -- -- 59
2019-10-06 12:00:00 16.7 9 Norte 15 Noroeste 0 -- -- 59
2019-10-06 11:00:00 15.8 4 Noroeste 10 Noroeste 0 -- -- 60
2019-10-06 10:00:00 14.4 6 Noroeste 11 Noroeste 0 -- -- 69
2019-10-06 09:00:00 11.2 0 Calma 7 Oeste 0 -- -- 90
2019-10-06 08:00:00 7.5 3 Sudoeste 9 Sudoeste 0 -- -- 93
2019-10-06 07:00:00 6.5 0 Calma 6 Sudeste 0 -- -- 93
2019-10-06 06:00:00 8.1 4 Sur 12 Sudoeste 0 -- -- 90
2019-10-06 05:00:00 8.7 8 Nordeste 14 Norte 0 -- -- 87
2019-10-06 04:00:00 10 3 Sur 18 Sudeste 0 -- -- 82
2019-10-06 03:00:00 8.9 0 Calma 12 Sudeste 0 -- -- 88
2019-10-06 02:00:00 8.9 3 Sur 12 Sudeste 0 -- -- 89
2019-10-06 01:00:00 8.8 0 Calma 7 Sudeste 0 -- -- 88
2019-10-06 00:00:00 9.5 5 Sudeste 8 Sudeste 0 -- -- 85
2019-10-05 23:00:00 10.4 5 Sudeste 9 Sudeste 0 -- -- 79
2019-10-05 22:00:00 11.8 4 Sur 9 Sudeste 0 -- -- 74
2019-10-05 21:00:00 14.3 6 Sudoeste 11 Noroeste 0 -- -- 67
2019-10-05 20:00:00 17.4 4 Sudoeste 18 Norte 0 -- -- 54
2019-10-05 19:00:00 20.8 11 Norte 21 Nordeste 0 -- -- 48
2019-10-05 18:00:00 22.3 14 Norte 23 Nordeste 0 -- -- 46
2019-10-05 17:00:00 23.7 15 Norte 33 Norte 0 -- -- 45
2019-10-05 16:00:00 26 6 Norte 22 Noroeste 0 -- -- 36
2019-10-05 15:00:00 25 6 Nordeste 14 Noroeste 0 -- -- 37
2019-10-05 14:00:00 25.1 3 Norte 12 Noroeste 0 -- -- 37
2019-10-05 13:00:00 23.1 5 Noroeste 13 Noroeste 0 -- -- 43
2019-10-05 12:00:00 21.4 5 Norte 11 Norte 0 -- -- 49
2019-10-05 11:00:00 18.1 0 Calma 4 Noroeste 0 -- -- 84
2019-10-05 10:00:00 10.3 0 Calma 9 Sudeste 0 -- -- 96
2019-10-05 09:00:00 9.3 5 Sudeste 10 Sudeste 0 -- -- 96
2019-10-05 08:00:00 9.6 5 Sudeste 7 Sudeste 0 -- -- 95
2019-10-05 07:00:00 9 5 Sudeste 8 Sudeste 0 -- -- 96
2019-10-05 06:00:00 8.1 4 Sudeste 8 Sudeste 0 -- -- 93
2019-10-05 05:00:00 10.6 2 Sudeste 7 Este 0 -- -- 90
2019-10-05 04:00:00 12.3 3 Sudeste 7 Sudoeste 0 -- -- 91
2019-10-05 03:00:00 12.1 2 Oeste 6 Norte 0 -- -- 93
2019-10-05 02:00:00 11.5 3 Noroeste 7 Noroeste 0 -- -- 94
2019-10-05 01:00:00 9.3 0 Calma 5 Sudeste 0 -- -- 93
2019-10-05 00:00:00 11.1 2 Sur 4 Sudoeste 0 -- -- 90
2019-10-04 23:00:00 12.6 3 Oeste 10 Oeste 0 -- -- 88
2019-10-04 22:00:00 13.2 6 Noroeste 23 Norte 0 -- -- 86
2019-10-04 21:00:00 14.4 11 Norte 19 Norte 0 -- -- 80
2019-10-04 20:00:00 16.8 6 Noroeste 20 Norte 0 -- -- 66
2019-10-04 19:00:00 19.1 14 Norte 27 Nordeste 0 -- -- 59
2019-10-04 18:00:00 22.8 13 Norte 24 Norte 0 -- -- 47
2019-10-04 17:00:00 23.4 12 Norte 28 Norte 0 -- -- 45
2019-10-04 16:00:00 22.6 15 Norte 24 Norte 0 -- -- 50
2019-10-04 15:00:00 22.6 8 Norte 23 Nordeste 0 -- -- 47
2019-10-04 14:00:00 21.2 14 Norte 24 Norte 0 -- -- 52
2019-10-04 13:00:00 21 7 Norte 15 Noroeste 0 -- -- 49
2019-10-04 12:00:00 20.3 5 Norte 14 Norte 0 -- -- 48
2019-10-04 11:00:00 18 10 Noroeste 15 Noroeste 0 -- -- 52
2019-10-04 10:00:00 18.7 2 Nordeste 10 Este 0 -- -- 51
2019-10-04 09:00:00 12.5 4 Este 10 Sudeste 0 -- -- 72
2019-10-04 08:00:00 9 3 Sur 12 Sudeste 0 -- -- 85
2019-10-04 07:00:00 9.5 4 Sudeste 9 Sudeste 0 -- -- 91
2019-10-04 06:00:00 8.8 5 Sudeste 10 Sudeste 0 -- -- 89
2019-10-04 05:00:00 8.5 2 Sudeste 12 Sudeste 0 -- -- 85
2019-10-04 04:00:00 8.8 7 Sudeste 12 Sudeste 0 -- -- 83
2019-10-04 03:00:00 8.5 2 Sur 12 Sudeste 0 -- -- 84
2019-10-04 02:00:00 8.6 2 Sur 9 Sudeste 0 -- -- 83
2019-10-04 01:00:00 9.3 4 Sudeste 10 Sudeste 0 -- -- 78
2019-10-04 00:00:00 9.1 2 Sur 7 Sudoeste 0 -- -- 78
2019-10-03 23:00:00 10.1 4 Sudoeste 8 Sur 0 -- -- 73
2019-10-03 22:00:00 10.8 2 Sudoeste 9 Sur 0 -- -- 69
2019-10-03 21:00:00 14.5 3 Sudoeste 10 Nordeste 0 -- -- 56
2019-10-03 20:00:00 16.2 4 Sudeste 23 Nordeste 0 -- -- 49
2019-10-03 19:00:00 19.9 15 Nordeste 25 Nordeste 0 -- -- 39
2019-10-03 18:00:00 21.6 13 Nordeste 24 Nordeste 0 -- -- 37
2019-10-03 17:00:00 22 13 Norte 24 Norte 0 -- -- 36
2019-10-03 16:00:00 22.2 16 Norte 27 Norte 0 -- -- 36
2019-10-03 15:00:00 24 8 Noroeste 19 Norte 0 -- -- 27
2019-10-03 14:00:00 24 4 Oeste 15 Sudoeste 0 -- -- 29
2019-10-03 13:00:00 22.3 6 Oeste 15 Sudoeste 0 -- -- 28
2019-10-03 12:00:00 20.7 8 Oeste 19 Sudoeste 0 -- -- 29
2019-10-03 11:00:00 17.4 11 Sudoeste 17 Sudoeste 0 -- -- 38
2019-10-03 10:00:00 14.4 2 Este 7 Sudeste 0 -- -- 51
2019-10-03 09:00:00 5.4 4 Sudeste 9 Sudeste 0 -- -- 82
2019-10-03 08:00:00 4.9 6 Sur 10 Sur 0 -- -- 83
2019-10-03 07:00:00 5.2 5 Sudeste 11 Sudeste 0 -- -- 88
2019-10-03 06:00:00 5.7 6 Sudeste 11 Sudeste 0 -- -- 90
2019-10-03 05:00:00 8.4 3 Este 9 Norte 0 -- -- 84
2019-10-03 04:00:00 8.7 5 Norte 12 Norte 0 -- -- 85
2019-10-03 03:00:00 9.7 9 Norte 19 Norte 0 -- -- 83
2019-10-03 02:00:00 10.4 11 Nordeste 23 Norte 0 -- -- 81
2019-10-03 01:00:00 10.6 11 Norte 19 Norte 0 -- -- 80
2019-10-03 00:00:00 10.2 10 Norte 33 Norte 0 -- -- 84
2019-10-02 23:00:00 10.4 18 Norte 31 Norte 0 -- -- 83
2019-10-02 22:00:00 10.8 9 Norte 26 Norte 0 -- -- 80
2019-10-02 21:00:00 11.6 17 Norte 25 Nordeste 0 -- -- 76
2019-10-02 20:00:00 13.2 18 Norte 32 Norte 0 -- -- 63
2019-10-02 19:00:00 15.6 20 Norte 33 Noroeste 0 -- -- 53
2019-10-02 18:00:00 16.7 19 Norte 32 Noroeste 0 -- -- 50
2019-10-02 17:00:00 16.6 18 Noroeste 34 Noroeste 0 -- -- 51
2019-10-02 16:00:00 17 20 Noroeste 35 Norte 0 -- -- 48
2019-10-02 15:00:00 17.1 22 Norte 40 Norte 0 -- -- 47
2019-10-02 14:00:00 16.5 24 Norte 40 Norte 0 -- -- 50
2019-10-02 13:00:00 16 22 Norte 35 Noroeste 0 -- -- 52
2019-10-02 12:00:00 15 19 Norte 38 Noroeste 0 -- -- 56
2019-10-02 11:00:00 15.8 19 Noroeste 35 Noroeste 0 -- -- 53
2019-10-02 10:00:00 14.6 3 Sur 21 Sudeste 0 -- -- 56
2019-10-02 09:00:00 11.7 5 Norte 18 Sudeste 0 -- -- 67
2019-10-02 08:00:00 9.2 4 Norte 20 Noroeste 0 -- -- 76
2019-10-02 07:00:00 10.3 5 Noroeste 18 Norte 0 -- -- 85
2019-10-02 06:00:00 11.1 9 Norte 22 Norte 0 -- -- 88
2019-10-02 05:00:00 10.9 9 Norte 16 Nordeste 0 -- -- 90
2019-10-02 04:00:00 11.7 8 Norte 17 Norte 0 -- -- 90
2019-10-02 03:00:00 12.5 4 Noroeste 12 Norte 0 -- -- 89
2019-10-02 02:00:00 12.7 4 Norte 8 Norte 0 -- -- 89
2019-10-02 01:00:00 12.5 3 Norte 9 Noroeste 0 -- -- 89
2019-10-02 00:00:00 12.2 3 Noroeste 11 Noroeste 0 -- -- 90
2019-10-01 23:00:00 12.6 5 Noroeste 11 Nordeste 0 -- -- 86
2019-10-01 22:00:00 14.1 4 Norte 19 Noroeste 0 -- -- 80
2019-10-01 21:00:00 15.5 6 Nordeste 23 Norte 0 -- -- 73
2019-10-01 20:00:00 18.1 13 Norte 35 Noroeste 0 -- -- 63
2019-10-01 19:00:00 21.9 16 Oeste 38 Sudoeste 0 -- -- 41
2019-10-01 18:00:00 23.1 19 Oeste 37 Oeste 0 -- -- 38
2019-10-01 17:00:00 24.1 18 Oeste 36 Oeste 0 -- -- 35
2019-10-01 16:00:00 24 18 Oeste 40 Noroeste 0 -- -- 36
2019-10-01 15:00:00 23.8 20 Oeste 33 Oeste 0 -- -- 34
2019-10-01 14:00:00 24.3 19 Oeste 36 Sudoeste 0 -- -- 39
2019-10-01 13:00:00 23.6 12 Sudoeste 36 Sudoeste 0 -- -- 44
2019-10-01 12:00:00 22.6 14 Oeste 28 Sudoeste 0 -- -- 43
2019-10-01 11:00:00 21.6 14 Sudoeste 27 Sudoeste 0 -- -- 44
2019-10-01 10:00:00 18.4 10 Sudoeste 20 Sudoeste 0 -- -- 44
2019-10-01 09:00:00 16.6 5 Sudeste 15 Sudeste 0 -- -- 52
2019-10-01 08:00:00 12.6 13 Sudeste 15 Sudeste 0 -- -- 62
2019-10-01 07:00:00 12.4 6 Sudeste 9 Sudeste 0 -- -- 62
2019-10-01 06:00:00 12 7 Sudeste 12 Sudeste 0 -- -- 66
2019-10-01 05:00:00 13.6 0 Calma 15 Este 0 -- -- 59
2019-10-01 04:00:00 14 10 Sudeste 14 Este 0 -- -- 55
2019-10-01 03:00:00 13.7 3 Este 12 Sudeste 0 -- -- 56
2019-10-01 02:00:00 14.4 8 Sudeste 18 Sudeste 0 -- -- 48
2019-10-01 01:00:00 15.1 9 Sudeste 16 Sudeste 0 -- -- 42
2019-10-01 00:00:00 15.6 11 Sudeste 21 Sudeste 0 -- -- 40
2019-09-30 23:00:00 14.9 0 Calma 15 Sudeste 0 -- -- 45
2019-09-30 22:00:00 14.1 3 Sur 12 Sudeste 0 -- -- 52
2019-09-30 21:00:00 15.2 6 Sudeste 13 Sudoeste 0 -- -- 53
2019-09-30 20:00:00 20 8 Oeste 18 Sudoeste 0 -- -- 53
2019-09-30 19:00:00 26.7 11 Sudoeste 22 Sur 0 -- -- 22
2019-09-30 18:00:00 27.9 13 Sudoeste 35 Sudoeste 0 -- -- 23
2019-09-30 17:00:00 27.3 17 Sudoeste 28 Sudoeste 0 -- -- 24
2019-09-30 16:00:00 27.3 13 Sudoeste 32 Sudoeste 0 -- -- 27
2019-09-30 15:00:00 26.3 15 Sudoeste 35 Sudoeste 0 -- -- 32
2019-09-30 14:00:00 25.5 16 Sudoeste 29 Sudoeste 0 -- -- 30
2019-09-30 13:00:00 24.6 10 Sudoeste 19 Sudoeste 0 -- -- 38
2019-09-30 12:00:00 24.5 6 Oeste 14 Sudoeste 0 -- -- 41
2019-09-30 11:00:00 23.1 5 Oeste 16 Sudoeste 0 -- -- 50
2019-09-30 10:00:00 20.7 7 Sur 14 Sudoeste 0 -- -- 57
2019-09-30 09:00:00 16.1 5 Sudeste 10 Este 0 -- -- 72
2019-09-30 08:00:00 11.5 3 Sudeste 10 Sudeste 0 -- -- 77
2019-09-30 07:00:00 12.9 4 Sudeste 13 Sudeste 0 -- -- 69
2019-09-30 06:00:00 13.5 9 Sudeste 18 Sudeste 0 -- -- 62
2019-09-30 05:00:00 13 8 Sudeste 15 Sur 0 -- -- 59
2019-09-30 04:00:00 12.8 9 Sudeste 14 Sudeste 0 -- -- 55
2019-09-30 03:00:00 13.2 11 Sudeste 15 Sudeste 0 -- -- 51
2019-09-30 02:00:00 13.1 4 Sudeste 14 Sudeste 0 -- -- 51
2019-09-30 01:00:00 14.7 10 Sudeste 15 Sudeste 0 -- -- 43
2019-09-30 00:00:00 14.5 11 Sudeste 17 Sudeste 0 -- -- 42
2019-09-29 23:00:00 14.7 12 Sudeste 19 Sudeste 0 -- -- 41
2019-09-29 22:00:00 14.9 5 Sur 17 Este 0 -- -- 41
2019-09-29 21:00:00 17.8 6 Sudeste 14 Este 0 -- -- 32
2019-09-29 20:00:00 20.3 6 Sudoeste 22 Oeste 0 -- -- 28
2019-09-29 19:00:00 25.6 13 Oeste 30 Sudoeste 0 -- -- 21
2019-09-29 18:00:00 26.7 16 Oeste 37 Sudoeste 0 -- -- 18
2019-09-29 17:00:00 26.9 18 Oeste 38 Sudoeste 0 -- -- 20
2019-09-29 16:00:00 27.2 19 Sudoeste 34 Sudoeste 0 -- -- 23
2019-09-29 15:00:00 26.6 17 Sudoeste 42 Sudoeste 0 -- -- 23
2019-09-29 14:00:00 26.4 12 Sudoeste 31 Sudoeste 0 -- -- 26
2019-09-29 13:00:00 24.1 19 Sudoeste 32 Sudoeste 0 -- -- 31
2019-09-29 12:00:00 22.5 11 Sudoeste 24 Sudoeste 0 -- -- 35
2019-09-29 11:00:00 22.5 8 Sudoeste 19 Sudeste 0 -- -- 30
2019-09-29 10:00:00 20.7 8 Sudeste 22 Sudeste 0 -- -- 35
2019-09-29 09:00:00 16 16 Sudeste 21 Sudeste 0 -- -- 49
2019-09-29 08:00:00 13.1 13 Sudeste 37 Sudeste 0 -- -- 53
2019-09-29 07:00:00 14.8 16 Sudeste 23 Sudeste 0 -- -- 50
2019-09-29 06:00:00 10.8 3 Sudoeste 11 Sudeste 0 -- -- 67
2019-09-29 05:00:00 11.8 4 Sudeste 18 Sudeste 0 -- -- 62
2019-09-29 04:00:00 13.5 6 Sudeste 18 Sudeste 0 -- -- 56
2019-09-29 03:00:00 14.8 15 Sudeste 25 Sudeste 0 -- -- 50
2019-09-29 02:00:00 15.7 14 Sudeste 19 Sudeste 0 -- -- 46
2019-09-29 01:00:00 14.6 16 Sudeste 22 Sudeste 0 -- -- 52
2019-09-29 00:00:00 14.5 13 Sudeste 20 Sudeste 0 -- -- 58
2019-09-28 23:00:00 16.7 17 Sudeste 36 Sudeste 0 -- -- 54
2019-09-28 22:00:00 17.3 18 Sudeste 25 Sudeste 0 -- -- 58
2019-09-28 21:00:00 13.9 2 Sur 11 Sudeste 0 -- -- 59
2019-09-28 20:00:00 19.2 5 Sudoeste 17 Sudoeste 0 -- -- 53
2019-09-28 19:00:00 26.6 8 Sudoeste 24 Oeste 0 -- -- 28
2019-09-28 18:00:00 27.4 12 Oeste 26 Oeste 0 -- -- 26
2019-09-28 17:00:00 26.7 11 Sudoeste 25 Sudoeste 0 -- -- 29
2019-09-28 16:00:00 26.6 8 Sudoeste 26 Sudoeste 0 -- -- 30
2019-09-28 15:00:00 25.6 14 Sudoeste 27 Sudoeste 0 -- -- 30
2019-09-28 14:00:00 25.1 5 Sudoeste 26 Sudoeste 0 -- -- 37
2019-09-28 13:00:00 23.2 10 Sur 26 Sudeste 0 -- -- 41
2019-09-28 12:00:00 22.4 6 Sudoeste 17 Oeste 0 -- -- 46
2019-09-28 11:00:00 16.4 6 Noroeste 10 Noroeste 0 -- -- 71
2019-09-28 10:00:00 13.7 3 Norte 5 Norte 0 -- -- 82
2019-09-28 09:00:00 8.2 2 Sudeste 5 Norte 0 -- -- 95
2019-09-28 08:00:00 6.6 3 Sur 7 Sudeste 0 -- -- 95
2019-09-28 07:00:00 7.4 5 Sur 8 Sudeste 0 -- -- 94
2019-09-28 06:00:00 7 3 Sudeste 6 Sur 0 -- -- 92
2019-09-28 05:00:00 8.4 4 Sudeste 13 Sudeste 0 -- -- 93
2019-09-28 04:00:00 8.4 0 Calma 12 Sur 0 -- -- 90
2019-09-28 03:00:00 9.1 6 Sur 11 Sudeste 0 -- -- 92
2019-09-28 02:00:00 8.2 5 Este 8 Sudeste 0 -- -- 83
2019-09-28 01:00:00 8.9 5 Sudeste 9 Sudeste 0 -- -- 73
2019-09-28 00:00:00 10.4 3 Sur 12 Nordeste 0 -- -- 59
2019-09-27 23:00:00 11.5 4 Sur 11 Sudeste 0 -- -- 52
2019-09-27 22:00:00 11.9 7 Sudeste 11 Sudeste 0 -- -- 51
2019-09-27 21:00:00 15.3 4 Sudoeste 12 Nordeste 0 -- -- 40
2019-09-27 20:00:00 17.3 3 Sur 17 Oeste 0 -- -- 37
2019-09-27 19:00:00 24.5 12 Oeste 22 Noroeste 0 -- -- 24
2019-09-27 18:00:00 25.6 14 Oeste 32 Oeste 0 -- -- 23
2019-09-27 17:00:00 25.5 14 Oeste 38 Sudoeste 0 -- -- 22
2019-09-27 16:00:00 25.8 14 Sudoeste 31 Oeste 0 -- -- 23
2019-09-27 15:00:00 25 14 Oeste 26 Oeste 0 -- -- 26
2019-09-27 14:00:00 24.5 10 Sudoeste 24 Sudoeste 0 -- -- 29
2019-09-27 13:00:00 23.8 7 Oeste 24 Sudoeste 0 -- -- 31
2019-09-27 12:00:00 22.7 13 Sudoeste 27 Oeste 0 -- -- 33
2019-09-27 11:00:00 21.8 14 Sudoeste 24 Sudoeste 0 -- -- 34
2019-09-27 10:00:00 20.3 9 Sur 17 Sudoeste 0 -- -- 36
2019-09-27 09:00:00 15.5 3 Nordeste 17 Sudeste 0 -- -- 50
2019-09-27 08:00:00 11.5 12 Sudeste 15 Sudeste 0 -- -- 61
2019-09-27 07:00:00 11.2 10 Sudeste 13 Sudeste 0 -- -- 63
2019-09-27 06:00:00 11.5 3 Sur 11 Sur 0 -- -- 63
2019-09-27 05:00:00 13 5 Sur 13 Sudeste 0 -- -- 59
2019-09-27 04:00:00 12.6 8 Sudeste 14 Sudeste 0 -- -- 63
2019-09-27 03:00:00 13.6 9 Sudeste 18 Sudeste 0 -- -- 60
2019-09-27 02:00:00 12.6 10 Sudeste 15 Sudeste 0 -- -- 67
2019-09-27 01:00:00 13.4 14 Sudeste 17 Sudeste 0 -- -- 65
2019-09-27 00:00:00 13.1 3 Sudeste 6 Sudeste 0 -- -- 66
2019-09-26 23:00:00 13.8 4 Sudeste 9 Sudeste 0 -- -- 68
2019-09-26 22:00:00 13.8 5 Sudeste 9 Sudeste 0 -- -- 74
2019-09-26 21:00:00 16.4 6 Sudoeste 11 Sudoeste 0 -- -- 65
2019-09-26 20:00:00 19.9 6 Noroeste 18 Norte 0 -- -- 53
2019-09-26 19:00:00 25.6 11 Oeste 26 Oeste 0 -- -- 31
2019-09-26 18:00:00 26.5 15 Oeste 26 Sudoeste 0 -- -- 29
2019-09-26 17:00:00 27.3 12 Sudoeste 27 Sudoeste 0 -- -- 30
2019-09-26 16:00:00 25.8 14 Sudoeste 30 Sudoeste 0 -- -- 36
2019-09-26 15:00:00 24 17 Sudoeste 32 Sudoeste 0 -- -- 39
2019-09-26 14:00:00 23.1 13 Sur 25 Sudoeste 0 -- -- 41
2019-09-26 13:00:00 21.5 13 Sudoeste 30 Sudoeste 0 -- -- 44
2019-09-26 12:00:00 20.2 10 Sudoeste 32 Sudoeste 0 -- -- 49
2019-09-26 11:00:00 19.3 12 Sur 23 Sudoeste 0 -- -- 51
2019-09-26 10:00:00 18.6 6 Sudoeste 18 Sur 0 -- -- 53
2019-09-26 09:00:00 14.2 10 Sudeste 17 Sudeste 0 -- -- 67
2019-09-26 08:00:00 10.8 11 Sudeste 18 Sudeste 0 -- -- 76
2019-09-26 07:00:00 9.9 12 Sudeste 15 Sudeste 0 -- -- 80
2019-09-26 06:00:00 9.8 9 Sudeste 14 Sudeste 0 -- -- 81
2019-09-26 05:00:00 9.9 10 Sudeste 15 Sudeste 0 -- -- 82
2019-09-26 04:00:00 10.2 5 Sur 12 Sudeste 0 -- -- 81
2019-09-26 03:00:00 9.9 9 Sudeste 12 Sudeste 0 -- -- 83
2019-09-26 02:00:00 10.2 8 Sudeste 11 Este 0 -- -- 82
2019-09-26 01:00:00 10.4 9 Sudeste 12 Sudeste 0 -- -- 84
2019-09-26 00:00:00 11.2 4 Sur 10 Sudeste 0 -- -- 81
2019-09-25 23:00:00 11.2 6 Sur 11 Sudeste 0 -- -- 79
2019-09-25 22:00:00 10.7 4 Sudeste 9 Sur 0 -- -- 79
2019-09-25 21:00:00 12.2 4 Sur 8 Sudoeste 0 -- -- 73
2019-09-25 20:00:00 15.2 2 Oeste 14 Nordeste 0 -- -- 60
2019-09-25 19:00:00 17 12 Nordeste 20 Nordeste 0 -- -- 54
2019-09-25 18:00:00 19.8 11 Oeste 32 Noroeste 0 -- -- 46
2019-09-25 17:00:00 21.5 6 Oeste 16 Sudoeste 0 -- -- 43
2019-09-25 16:00:00 21.3 5 Sudoeste 16 Noroeste 0 -- -- 44
2019-09-25 15:00:00 20 3 Oeste 15 Norte 0 -- -- 47
2019-09-25 14:00:00 19.1 9 Oeste 17 Noroeste 0 -- -- 48
2019-09-25 13:00:00 17.1 6 Noroeste 20 Norte 0 -- -- 57
2019-09-25 12:00:00 16.4 9 Noroeste 15 Noroeste 0 -- -- 56
2019-09-25 11:00:00 14.6 6 Norte 12 Norte 0 -- -- 67
2019-09-25 10:00:00 15.9 3 Oeste 6 Oeste 0 -- -- 62
2019-09-25 09:00:00 10.9 2 Sur 7 Sur 0 -- -- 88
2019-09-25 08:00:00 9.4 5 Sur 9 Sudeste 0 -- -- 94
2019-09-25 07:00:00 10.3 4 Noroeste 19 Oeste 0 -- -- 91
2019-09-25 06:00:00 11.4 6 Sudoeste 13 Norte 0 -- -- 85
2019-09-25 05:00:00 12.1 5 Noroeste 13 Oeste 0 -- -- 82
2019-09-25 04:00:00 13.3 9 Sudoeste 18 Oeste 0 -- -- 80
2019-09-25 03:00:00 14.2 13 Oeste 21 Sudoeste 0 -- -- 81
2019-09-25 02:00:00 15 9 Oeste 26 Sudoeste 0 -- -- 83
2019-09-25 01:00:00 15.6 14 Oeste 32 Oeste 0 -- -- 85
2019-09-25 00:00:00 15 5 Sudoeste 19 Sudoeste 0 -- -- 86
2019-09-24 23:00:00 15.9 10 Sudoeste 19 Sudoeste 0 -- -- 83
2019-09-24 22:00:00 16.5 10 Sudoeste 20 Sudoeste 0 -- -- 79
2019-09-24 21:00:00 16.8 9 Sudoeste 22 Sudoeste 0 -- -- 76
2019-09-24 20:00:00 17.8 13 Sudoeste 36 Sudoeste 0 -- -- 71
2019-09-24 19:00:00 19.3 13 Oeste 36 Oeste 0 -- -- 65
2019-09-24 18:00:00 20.4 14 Oeste 29 Noroeste 0 -- -- 61
2019-09-24 17:00:00 21.2 14 Oeste 37 Sudoeste 0 -- -- 56
2019-09-24 16:00:00 23.2 17 Sudoeste 36 Sudoeste 0 -- -- 50
2019-09-24 15:00:00 21.8 19 Sudoeste 41 Sudoeste 0 -- -- 56
2019-09-24 14:00:00 22.1 18 Sudoeste 42 Sudoeste 0 -- -- 53
2019-09-24 13:00:00 21.6 18 Sudoeste 39 Sur 0 -- -- 48
2019-09-24 12:00:00 19.4 15 Sudoeste 36 Sudoeste 0 -- -- 53
2019-09-24 11:00:00 17.9 14 Sudoeste 38 Sudoeste 0 -- -- 58
2019-09-24 10:00:00 16.5 19 Sudoeste 33 Sudoeste 0 -- -- 61
2019-09-24 09:00:00 15 6 Norte 33 Sudoeste 0 -- -- 65
2019-09-24 08:00:00 13.2 8 Este 17 Este 0 -- -- 70
2019-09-24 07:00:00 13.1 4 Sudeste 18 Sudoeste 0 -- -- 69
2019-09-24 06:00:00 13.9 10 Sudoeste 30 Sur 0 -- -- 65
2019-09-24 05:00:00 15.2 17 Sur 35 Sur 0 -- -- 60
2019-09-24 04:00:00 15.6 16 Sur 33 Sudeste 0 -- -- 60
2019-09-24 03:00:00 13.8 17 Sudeste 23 Sudeste 0 -- -- 71
2019-09-24 02:00:00 15.8 8 Sudeste 25 Sudeste 0 -- -- 61
2019-09-24 01:00:00 14.6 18 Sudeste 30 Sudeste 0 -- -- 69
2019-09-24 00:00:00 14.8 11 Sudeste 19 Sudoeste 0 -- -- 67
2019-09-23 23:00:00 14.9 7 Sudeste 27 Sudeste 0 -- -- 63
2019-09-23 22:00:00 15.8 9 Sur 19 Sur 0 -- -- 56
2019-09-23 21:00:00 15.8 8 Sur 17 Sur 0 -- -- 53
2019-09-23 20:00:00 18.2 8 Sur 16 Sudoeste 0 -- -- 45
2019-09-23 19:00:00 20.5 7 Sudoeste 22 Sur 0 -- -- 39
2019-09-23 18:00:00 20.5 12 Oeste 27 Sudoeste 0 -- -- 38
2019-09-23 17:00:00 19.9 15 Sudoeste 27 Sudoeste 0 -- -- 42
2019-09-23 16:00:00 19.5 14 Sudoeste 27 Oeste 0 -- -- 44
2019-09-23 15:00:00 19 12 Sudoeste 28 Sudoeste 0 -- -- 47
2019-09-23 14:00:00 18.5 14 Sudoeste 26 Sudoeste 0 -- -- 48
2019-09-23 13:00:00 18.1 12 Sudoeste 24 Sudoeste 0 -- -- 51
2019-09-23 12:00:00 17.1 13 Sudoeste 24 Sudoeste 0 -- -- 52
2019-09-23 11:00:00 16.9 5 Sur 15 Sudoeste 0 -- -- 54
2019-09-23 10:00:00 15.1 2 Sudeste 11 Este 0 -- -- 59
2019-09-23 09:00:00 10.8 9 Sudeste 12 Sudeste 0 -- -- 78
2019-09-23 08:00:00 8 7 Sudeste 10 Sudeste 0 -- -- 85
2019-09-23 07:00:00 8 5 Sudeste 10 Sudoeste 0 -- -- 83
2019-09-23 06:00:00 8.3 3 Sudoeste 10 Sudoeste 0 -- -- 82
2019-09-23 05:00:00 8.2 6 Sudeste 10 Sudeste 0 -- -- 81
2019-09-23 04:00:00 8.6 7 Sudeste 11 Sudeste 0 -- -- 80
2019-09-23 03:00:00 9 5 Sudeste 9 Sudeste 0 -- -- 84
2019-09-23 02:00:00 8.5 6 Sudeste 10 Sudeste 0 -- -- 83
2019-09-23 01:00:00 8.6 5 Este 13 Sudeste 0 -- -- 83
2019-09-23 00:00:00 10.3 6 Sudeste 11 Este 0 -- -- 76
2019-09-22 23:00:00 11.7 2 Sur 14 Oeste 0 -- -- 71
2019-09-22 22:00:00 13.5 8 Sudoeste 19 Sudoeste 0 -- -- 64
2019-09-22 21:00:00 14.6 12 Oeste 23 Sudoeste 0 -- -- 60
2019-09-22 20:00:00 15.7 11 Sudoeste 25 Oeste 0 -- -- 55
2019-09-22 19:00:00 19 14 Oeste 26 Oeste 0 -- -- 43
2019-09-22 18:00:00 20.2 14 Oeste 30 Oeste 0 -- -- 41
2019-09-22 17:00:00 19 16 Oeste 32 Sudoeste 0 -- -- 44
2019-09-22 16:00:00 19.4 14 Oeste 30 Sudoeste 0 -- -- 46
2019-09-22 15:00:00 18.2 12 Oeste 24 Noroeste 0 -- -- 55
2019-09-22 14:00:00 15.9 17 Sudoeste 30 Sudoeste 0 -- -- 69
2019-09-22 13:00:00 16.3 11 Oeste 27 Oeste 0 -- -- 62
2019-09-22 12:00:00 17.6 13 Oeste 27 Sudoeste 0 -- -- 59
2019-09-22 11:00:00 13.7 13 Sudoeste 25 Sudoeste 0 -- -- 77
2019-09-22 10:00:00 14.1 6 Oeste 22 Sudoeste 0 -- -- 79
2019-09-22 09:00:00 14.1 9 Oeste 34 Sudoeste 0 -- -- 82
2019-09-22 08:00:00 15.2 14 Sudoeste 44 Sur 0 -- -- 84
2019-09-22 07:00:00 15.5 23 Sur 48 Sudoeste 0.2 -- -- 83
2019-09-22 06:00:00 15.6 20 Sur 43 Sudeste 0 -- -- 82
2019-09-22 05:00:00 15.6 27 Sur 47 Sur 0 -- -- 84
2019-09-22 04:00:00 15.9 25 Sur 51 Sur 0 -- -- 80
2019-09-22 03:00:00 16.4 23 Sur 58 Sur 0 -- -- 80
2019-09-22 02:00:00 16.5 14 Sur 45 Sudeste 0 -- -- 82
2019-09-22 01:00:00 16.5 19 Sur 45 Sur 0 -- -- 82
2019-09-22 00:00:00 16.7 22 Sur 43 Sudeste 0 -- -- 80
2019-09-21 23:00:00 16.6 16 Sur 41 Sur 0 -- -- 78
2019-09-21 22:00:00 17.1 23 Sudeste 41 Sudeste 0 -- -- 75
2019-09-21 21:00:00 17.5 13 Sudeste 36 Sudoeste 0 -- -- 72
2019-09-21 20:00:00 17.8 17 Sur 37 Sudoeste 0 -- -- 69
2019-09-21 19:00:00 18.9 18 Sur 40 Sur 0 -- -- 62
2019-09-21 18:00:00 19.9 20 Sur 40 Sudoeste 0 -- -- 60
2019-09-21 17:00:00 19.9 18 Sudoeste 38 Sudoeste 0 -- -- 56
2019-09-21 16:00:00 20.1 20 Sur 41 Sudoeste 0 -- -- 56
2019-09-21 15:00:00 20 21 Sudoeste 42 Sur 0 -- -- 56
2019-09-21 14:00:00 20 21 Sur 39 Sur 0 -- -- 56
2019-09-21 13:00:00 19.3 18 Sur 37 Sudoeste 0 -- -- 62
2019-09-21 12:00:00 19.4 13 Sur 29 Sur 0 -- -- 60
2019-09-21 11:00:00 18.2 18 Sur 36 Sudoeste 0 -- -- 66
2019-09-21 10:00:00 15.6 18 Sur 39 Sur 0 -- -- 79
2019-09-21 09:00:00 14.9 17 Sur 34 Sudeste 0 -- -- 82
2019-09-21 08:00:00 14.9 15 Sur 28 Sudeste 0 -- -- 83
2019-09-21 07:00:00 15.1 18 Sudeste 29 Sudeste 0 -- -- 82
2019-09-21 06:00:00 14.9 14 Sudeste 23 Sudeste 0 -- -- 87
2019-09-21 05:00:00 14.6 13 Sudeste 21 Sudeste 0 -- -- 93
2019-09-21 04:00:00 13.4 2 Norte 15 Sudoeste 0.4 -- -- 92
2019-09-21 03:00:00 14.1 5 Noroeste 16 Sur 2.4 -- -- 88
2019-09-21 02:00:00 16 13 Sudoeste 27 Sudoeste 0 -- -- 78
2019-09-21 01:00:00 15.7 14 Sudeste 33 Sudeste 0 -- -- 85
2019-09-21 00:00:00 16 12 Sur 25 Sudeste 0 -- -- 81
2019-09-20 23:00:00 14.9 18 Sur 37 Sudeste 0.2 -- -- 76
2019-09-20 22:00:00 15.2 23 Sudeste 46 Sudeste 1.4 -- -- 89
2019-09-20 21:00:00 17.4 22 Sudeste 40 Sudeste 0 -- -- 64
2019-09-20 20:00:00 18.2 20 Sudeste 49 Sudeste 0 -- -- 61
2019-09-20 19:00:00 18.9 23 Sudeste 51 Sudeste 0.2 -- -- 60
2019-09-20 18:00:00 20.2 15 Sudeste 43 Sudeste 0 -- -- 64
2019-09-20 17:00:00 22.7 23 Sudeste 37 Sudeste 0 -- -- 54
2019-09-20 16:00:00 23.7 19 Sudeste 31 Sudeste 0 -- -- 51
2019-09-20 15:00:00 22.4 15 Sudeste 26 Sudeste 0 -- -- 53
2019-09-20 14:00:00 24.3 7 Sur 22 Sudeste 0 -- -- 49
2019-09-20 13:00:00 21.7 11 Noroeste 16 Norte 0 -- -- 63
2019-09-20 12:00:00 20 7 Norte 12 Noroeste 0 -- -- 67
2019-09-20 11:00:00 19.9 9 Norte 12 Norte 0 -- -- 65
2019-09-20 10:00:00 18.7 7 Noroeste 19 Sudeste 0 -- -- 71
2019-09-20 09:00:00 17 14 Sudeste 21 Sudeste 0 -- -- 73
2019-09-20 08:00:00 15.2 11 Sudeste 19 Sudeste 0 -- -- 74
2019-09-20 07:00:00 15.5 9 Sudeste 24 Sudeste 0 -- -- 72
2019-09-20 06:00:00 15.8 13 Sudeste 21 Sudeste 0 -- -- 71
2019-09-20 05:00:00 13.5 2 Sur 9 Sur 0 -- -- 86
2019-09-20 04:00:00 14.1 0 Calma 8 Sudeste 0 -- -- 84
2019-09-20 03:00:00 16.5 4 Oeste 12 Norte 0 -- -- 77
2019-09-20 02:00:00 17 4 Oeste 14 Sudeste 0 -- -- 69
2019-09-20 01:00:00 16.9 2 Norte 24 Sudeste 0 -- -- 72
2019-09-20 00:00:00 17.7 18 Sudeste 26 Sur 0 -- -- 73
2019-09-19 23:00:00 18.4 17 Sudeste 29 Sudeste 0 -- -- 66
2019-09-19 22:00:00 17.6 8 Sudeste 14 Sudeste 0 -- -- 72
2019-09-19 21:00:00 16 5 Sur 11 Sudoeste 0 -- -- 83
2019-09-19 20:00:00 18.4 4 Sur 8 Sur 0 -- -- 79
2019-09-19 19:00:00 20.8 3 Norte 12 Nordeste 0 -- -- 71
2019-09-19 18:00:00 23.3 2 Este 18 Norte 0.2 -- -- 61
2019-09-19 17:00:00 20.6 7 Norte 20 Norte 0.6 -- -- 71
2019-09-19 16:00:00 21.4 13 Norte 23 Norte 0 -- -- 65
2019-09-19 15:00:00 22.4 10 Norte 22 Norte 0 -- -- 60
2019-09-19 14:00:00 21.5 9 Norte 18 Norte 0 -- -- 62
2019-09-19 13:00:00 20.3 12 Norte 17 Noroeste 0 -- -- 65
2019-09-19 12:00:00 21.8 4 Norte 9 Norte 0 -- -- 60
2019-09-19 11:00:00 18.6 3 Norte 6 Norte 0 -- -- 73
2019-09-19 10:00:00 16.9 0 Calma 4 Oeste 0 -- -- 84
2019-09-19 09:00:00 13.4 0 Calma 5 Sudoeste 0 -- -- 92
2019-09-19 08:00:00 11.7 0 Calma 6 Nordeste 0 -- -- 93
2019-09-19 07:00:00 12.4 4 Noroeste 8 Sudoeste 0 -- -- 90
2019-09-19 06:00:00 12.1 4 Sudeste 8 Sudeste 0 -- -- 93
2019-09-19 05:00:00 11 3 Sur 10 Sudeste 0 -- -- 93
2019-09-19 04:00:00 11.5 5 Sudeste 9 Sudeste 0 -- -- 92
2019-09-19 03:00:00 11.4 4 Sudeste 10 Este 0 -- -- 94
2019-09-19 02:00:00 11.4 3 Sudeste 9 Sudeste 0 -- -- 91
2019-09-19 01:00:00 11.2 5 Sudeste 9 Sudeste 0 -- -- 90
2019-09-19 00:00:00 11.9 5 Sudeste 9 Este 0 -- -- 87
2019-09-18 23:00:00 12.9 2 Sudeste 9 Sudeste 0 -- -- 84
2019-09-18 22:00:00 13.9 4 Sudeste 10 Sur 0 -- -- 80
2019-09-18 21:00:00 14.3 3 Sur 9 Sur 0 -- -- 79
2019-09-18 20:00:00 15.9 3 Sur 10 Sudeste 0 -- -- 74
2019-09-18 19:00:00 20.3 4 Sudeste 10 Este 0 -- -- 57
2019-09-18 18:00:00 18.8 6 Nordeste 27 Noroeste 0 -- -- 61
2019-09-18 17:00:00 20.6 19 Noroeste 28 Noroeste 0 -- -- 58
2019-09-18 16:00:00 24.1 10 Sudoeste 21 Este 0 -- -- 47
2019-09-18 15:00:00 20.1 12 Sur 20 Sudeste 0 -- -- 58
2019-09-18 14:00:00 21.2 12 Sudeste 17 Sudeste 0 -- -- 57
2019-09-18 13:00:00 21.2 6 Noroeste 19 Norte 0 -- -- 57
2019-09-18 12:00:00 20.7 4 Norte 12 Norte 0 -- -- 55
2019-09-18 11:00:00 21.3 3 Norte 8 Norte 0 -- -- 54
2019-09-18 10:00:00 21.9 0 Calma 10 Sudeste 0 -- -- 51
2019-09-18 09:00:00 15.4 4 Sudeste 10 Sudeste 0 -- -- 77
2019-09-18 08:00:00 10.3 4 Sur 9 Sudeste 0 -- -- 90
2019-09-18 07:00:00 10.2 2 Sur 10 Sudeste 0 -- -- 89
2019-09-18 06:00:00 12.2 7 Sudoeste 14 Norte 0 -- -- 84
2019-09-18 05:00:00 12.5 6 Sudeste 27 Sudeste 0 -- -- 87
2019-09-18 04:00:00 13.1 9 Sudeste 14 Sudeste 0 -- -- 87
2019-09-18 03:00:00 13.9 9 Sudeste 17 Sudeste 0 -- -- 87
2019-09-18 02:00:00 14.5 3 Sudeste 12 Sudoeste 0 -- -- 85
2019-09-18 01:00:00 15.7 4 Sur 19 Sur 0.2 -- -- 77
2019-09-18 00:00:00 15.9 14 Sudeste 47 Sur 0 -- -- 74
2019-09-17 23:00:00 17.9 17 Sur 48 Sur 0 -- -- 69
2019-09-17 22:00:00 16.4 3 Sur 9 Sur 0 -- -- 82
2019-09-17 21:00:00 19.6 6 Oeste 16 Nordeste 0 -- -- 70